Logo AVAMET
Benvolgut visitant, si us plau, ingressa Recuperar contrasenya
AVAMET paisatges

Palma de Gandia Marxuquera

Dades diàries. Acumulats / Últims 30 dies disponibles

Data Temperatura (°C) Humitat rel. (%) Pressió rel. (hPa) Vent (km/h) Precipitació
Mínima Mitjana Màxima Amplitud
tèrmica
Mínima Mitjana Màxima Mínima Mitjana Màxima Predom. Mitjana Ràfega
màxima
Total
(mm)
Índex-n
Mínima Mitjana Màxima Mínima Mitjana Màxima n
0 a 1
P0 max
mm 5'
Dades mensuals acumulades fins l'últim dia disponible
04/2020 6,2 9,0 11,3 13,5 17,0 20,1 22,2 16,0 49 83 98 1.019 1.024 1.030   1,1 24,1 15,0
Dades anuals acumulades fins l'últim dia disponible
2020 -1,4 7,1 16,9 12,7 11,2 19,7 28,3 29,7 19 77 99 1.009 1.031 1.044   1,6 56,3 546,2
Últims 30 dies disponibles
04-04-2020 6,2     12,8     20,6 14,4 49 81 98 1.027 1.028 1.030 ENE 1,3 17,7 0,0
03-04-2020 8,7     13,8     20,4 11,7 49 79 98 1.023 1.025 1.028 ENE 1,0 16,1 2,6
02-04-2020 11,3     12,7     17,0 5,7 74 89 96 1.020 1.021 1.024 ENE 0,6 12,9 5,2 0,47 1,60
01-04-2020 9,9     14,6     22,2 12,3 55 83 97 1.019 1.020 1.022 ENE 1,3 24,1 7,2 0,18 1,00
31-03-2020 7,8     10,7     14,7 6,9 82 92 96 1.019 1.020 1.022 SSE 0,4 9,7 6,0 0,27 0,60
30-03-2020 8,7     11,9     18,9 10,2 48 80 95 1.021 1.022 1.024 ENE 0,8 17,7 4,2
29-03-2020 4,3     14,8     24,7 20,4 36 65 98 1.022 1.025 1.029 WSW 1,9 20,9 0,0
28-03-2020 3,8     10,5     18,0 14,2 51 80 98 1.026 1.027 1.029 ENE 0,5 9,7 0,2
27-03-2020 6,8     9,0     11,2 4,4 80 92 97 1.021 1.023 1.026 NE 0,0 6,4 10,4
26-03-2020 6,2     11,0     17,7 11,5 38 78 98 1.016 1.019 1.023 NE 0,6 17,7 0,0
25-03-2020 7,8     9,6     12,3 4,5 73 91 96 1.024 1.026 1.027 ENE 0,3 17,7 14,8
24-03-2020 12,2     13,2     14,3 2,1 73 87 96 1.024 1.025 1.027 NE 3,9 29,0 11,6
23-03-2020 9,3     13,2     17,8 8,5 81 95 99 1.023 1.025 1.026 ENE 1,4 22,5 8,2
22-03-2020 10,0     11,9     15,0 5,0 85 95 98 1.020 1.022 1.024 ENE 0,2 6,4 33,6
21-03-2020 10,4     12,5     13,4 3,0 88 93 96 1.021 1.023 1.026 ENE 0,0 11,3 26,6
20-03-2020 13,0     14,2     17,4 4,4 68 84 91 1.026 1.027 1.029 ENE 1,4 12,9 0,0
19-03-2020 11,7     13,9     17,0 5,3 77 89 96 1.029 1.031 1.034 ENE 0,6 11,3 0,0
18-03-2020 12,2     14,2     17,1 4,9 72 88 95 1.034 1.036 1.037 ENE 1,0 14,5 0,0
17-03-2020 8,9     11,6     14,2 5,3 93 96 98 1.029 1.033 1.037 NE 0,8 17,7 17,4
16-03-2020 9,0     11,9     19,5 10,5 70 90 95 1.020 1.023 1.029 E 0,2 9,7 5,8
15-03-2020 8,2     14,1     21,2 13,0 60 84 98 1.022 1.026 1.029 ENE 0,6 17,7 0,0
14-03-2020 7,8     14,2     22,3 14,5 61 84 98 1.028 1.029 1.031 ENE 0,8 14,5 0,2
13-03-2020 8,3     13,6     20,9 12,6 63 87 98 1.027 1.028 1.030 ENE 0,3 9,7 0,0
12-03-2020 8,2     16,3     26,2 18,0 45 76 97 1.025 1.028 1.031 SSE 0,5 9,7 0,0
11-03-2020 7,9     17,3     28,3 20,4 35 67 95 1.030 1.031 1.032 ENE 0,5 11,3 0,0
10-03-2020 6,1     15,3     26,4 20,3 29 62 89 1.031 1.033 1.035 WSW 0,5 9,7 0,0
09-03-2020 10,5     17,5     24,3 13,8 28 47 74 1.028 1.030 1.032 WSW 2,4 22,5 0,0
08-03-2020 4,7     15,9     24,8 20,1 25 53 89 1.029 1.031 1.034 WSW 1,8 22,5 0,0
07-03-2020 7,1     13,7     21,5 14,4 34 46 83 1.030 1.031 1.033 W 4,7 37,0 0,0
06-03-2020 12,4     15,1     19,7 7,3 27 44 62 1.021 1.024 1.030 W 6,1 37,0 0,0
Últims 13 mesos disponibles
03/2020 3,8 9,5 16,9 14,2 11,2 19,9 28,3 24,5 43 74 96 1.016 1.026 1.036 ENE 2,3 56,3 139,0
02/2020 2,5 6,7 12,2 13,9 13,7 22,2 27,4 24,9 39 75 92 1.023 1.034 1.042 WSW 1,2 33,8 4,8
01/2020 -1,4 4,8 13,9 10,0 11,6 17,0 22,3 23,7 57 82 98 1.024 1.034 1.042 WSW 1,5 41,8 387,4
12/2019 1,5 8,1 19,7 13,0 13,1 18,8 25,7 24,2 51 75 94 1.011 1.028 1.042 WSW 2,5 57,9 321,2
11/2019 1,1 11,0 21,4 15,4 15,6 20,0 27,3 26,2 47 60 84 1.008 1.020 1.027 WSW 4,5 46,7 17,2
10/2019 7,9 13,5 21,1 19,3 15,9 26,4 34,5 26,6 52 75 89 1.017 1.025 1.031 WSW 1,1 38,6 48,6
09/2019 14,4 18,2 22,1 23,4 23,3 29,2 36,1 21,7 46 79 93 1.018 1.026 1.033 ENE 1,0 40,2 145,8
08/2019 16,4 20,3 25,6 26,8 29,4 34,1 42,2 25,8 50 72 84 1.018 1.024 1.028 ENE 1,0 25,7 27,2
07/2019 18,0 20,5 25,8 27,5 29,8 34,5 40,1 22,1 39 66 80 1.014 1.022 1.030 ENE 1,3 32,2 0,2
06/2019 10,6 15,0 20,8 23,2 23,7 30,7 38,1 27,5 36 65 78 1.017 1.024 1.030 ENE 1,1 38,6 0,0
05/2019 6,4 12,3 21,1 19,2 20,2 26,1 33,4 27,0 48 69 85 1.014 1.024 1.033 ENE 1,5 41,8 9,2
04/2019 5,6 10,1 13,9 15,3 13,8 21,0 30,6 25,0 50 72 97 1.008 1.022 1.034 WSW 2,5 37,0 307,8
03/2019 1,7 5,4 10,8 13,4 13,3 21,7 29,2 27,5 40 67 95 1.019 1.032 1.039 ENE 1,3 45,1 67,0
Tots els anys disponibles
2019 -3,8 11,9 25,8 18,1 13,1 25,0 42,2 34 70 97 1.004 1.026 1.043 ENE 1,8 57,9 952,8
Temperatura (°C)
Humitat relativa (%)
Velocitat del vent i ràfega màxima (km/h)
Direcció del vent (°)
Pressió (hPa)
Precipitació (mm)
Nota sobre les dades: s'avisa a l'usuari de la provisionalitat i no oficialitat d'aquestes dades
Logo AVAMET blanc
Web allotjada a Sollutia
Llicència de Creative CommonsLa web d'AVAMET i els seus continguts estan subjectes a una llicència de
Reconeixement - No Comercial - Compartir igual
Últimes estacions:  Altea - Com. Regants (Soci), Almoines (Inforatge), Beniparrell (Inforatge), Albal (Inforatge), Almussafes - Parc Industrial (Inforatge), La Vilavella (Soci), la Serratella (soci) - - -